Time;durP1;ratioP1;P1;durP2;ratioP2;P2;SDS_P1;SDS_P2;PMS_P1;PMS_P2;Temp;Humidity;BMP_temperature;BMP_pressure;BME280_temperature;BME280_humidity;BME280_pressure;Samples;Min_cycle;Max_cycle;Signal;HPM_P1;HPM_P2
2022/06/26 00:01:20;;;;;;;12.88;10.45;;;21.00;99.90;;;;;;6248770;23;20172;-92
2022/06/26 00:03:47;;;;;;;14.95;12.00;;;21.00;1.00;;;;;;6252190;23;20219;-93
2022/06/26 00:06:14;;;;;;;;;;;20.90;1.00;;;;;;6253030;23;20171;-92
2022/06/26 00:08:41;;;;;;;;;;;20.80;1.00;;;;;;6254163;23;20335;-92
2022/06/26 00:11:08;;;;;;;;;;;20.80;1.00;;;;;;6249888;23;19935;-93
2022/06/26 00:13:35;;;;;;;;;;;20.70;1.00;;;;;;6254633;23;19969;-93
2022/06/26 00:16:04;;;;;;;;;;;20.60;58.80;;;;;;6254517;23;19965;-93
2022/06/26 00:18:33;;;;;;;;;;;20.60;99.90;;;;;;6256472;23;19954;-92
2022/06/26 00:21:00;;;;;;;;;;;20.50;99.90;;;;;;6251908;23;19916;-94
2022/06/26 00:23:27;;;;;;;;;;;20.50;1.00;;;;;;6252951;23;19971;-93
2022/06/26 00:25:54;;;;;;;;;;;20.40;1.00;;;;;;6252178;23;19922;-92
2022/06/26 00:28:21;;;;;;;;;;;20.30;1.00;;;;;;6246496;23;19915;-92
2022/06/26 00:30:48;;;;;;;;;;;20.30;1.00;;;;;;6249064;23;19916;-90
2022/06/26 00:33:15;;;;;;;;;;;20.30;1.00;;;;;;6253427;23;20261;-91
2022/06/26 00:35:43;;;;;;;;;;;20.30;85.50;;;;;;6251602;23;19922;-90
2022/06/26 00:38:10;;;;;;;;;;;20.30;99.90;;;;;;6251334;23;20313;-91
2022/06/26 00:40:38;;;;;;;;;;;20.30;99.90;;;;;;6249818;23;19942;-91
2022/06/26 00:43:05;;;;;;;;;;;20.30;99.90;;;;;;6251730;23;19916;-91
2022/06/26 00:45:33;;;;;;;;;;;20.20;99.90;;;;;;6247144;23;19919;-91
2022/06/26 00:47:59;;;;;;;;;;;20.20;99.90;;;;;;6250749;23;19916;-91
2022/06/26 00:50:27;;;;;;;;;;;20.20;99.90;;;;;;6251862;23;19920;-91
2022/06/26 00:52:56;;;;;;;;;;;20.20;99.90;;;;;;6248998;23;19915;-91
2022/06/26 00:55:23;;;;;;;;;;;20.30;99.90;;;;;;6251103;23;20246;-92
2022/06/26 00:57:51;;;;;;;;;;;20.30;99.90;;;;;;6249840;23;19915;-91
2022/06/26 01:00:20;;;;;;;;;;;20.30;99.90;;;;;;6248697;23;19966;-91
2022/06/26 01:02:47;;;;;;;;;;;20.30;90.10;;;;;;6247706;23;19916;-91
2022/06/26 01:05:14;;;;;;;;;;;20.20;11.20;;;;;;6249848;23;19920;-91
2022/06/26 01:07:41;;;;;;;;;;;20.30;1.00;;;;;;6253624;23;19920;-91
2022/06/26 01:10:10;;;;;;;;;;;20.20;1.00;;;;;;6253115;23;19916;-90
2022/06/26 01:12:36;;;;;;;;;;;20.20;1.00;;;;;;6249441;23;19915;-91
2022/06/26 01:15:06;;;;;;;;;;;20.20;1.00;;;;;;6247593;23;19915;-91
2022/06/26 01:17:34;;;;;;;;;;;20.20;1.00;;;;;;6249061;23;19922;-91
2022/06/26 01:20:02;;;;;;;;;;;20.10;1.00;;;;;;6249413;23;19916;-91
2022/06/26 01:22:30;;;;;;;;;;;20.10;1.00;;;;;;6252561;23;19922;-90
2022/06/26 01:24:57;;;;;;;;;;;20.10;1.00;;;;;;6253270;23;19919;-90
2022/06/26 01:27:24;;;;;;;;;;;20.10;99.90;;;;;;6252078;23;19938;-91
2022/06/26 01:29:51;;;;;;;;;;;20.20;99.90;;;;;;6248749;23;19916;-91
2022/06/26 01:32:18;;;;;;;;;;;20.20;99.90;;;;;;6250253;23;19939;-90
2022/06/26 01:34:45;;;;;;;;;;;20.20;99.90;;;;;;6248068;23;19915;-90
2022/06/26 01:37:12;;;;;;;;;;;20.20;99.90;;;;;;6247430;23;20299;-91
2022/06/26 01:39:40;;;;;;;;;;;20.20;99.90;;;;;;6247129;23;19915;-90
2022/06/26 01:42:07;;;;;;;;;;;20.20;99.90;;;;;;6247539;23;19927;-90
2022/06/26 01:44:34;;;;;;;;;;;20.20;99.90;;;;;;6247459;23;19922;-90
2022/06/26 01:47:01;;;;;;;;;;;20.10;99.90;;;;;;6247380;23;19915;-91
2022/06/26 01:49:28;;;;;;;;;;;20.10;95.50;;;;;;6247072;23;19919;-91
2022/06/26 01:51:55;;;;;;;;;;;20.10;99.90;;;;;;6248188;23;19938;-91
2022/06/26 01:54:22;;;;;;;;;;;20.10;36.80;;;;;;6248169;23;19915;-91
2022/06/26 01:56:51;;;;;;;;;;;20.10;1.00;;;;;;6247202;23;19946;-91
2022/06/26 01:59:18;;;;;;;;;;;20.10;1.00;;;;;;6249045;23;19927;-90
2022/06/26 02:01:45;;;;;;;;;;;20.00;1.00;;;;;;6247468;23;19922;-91
2022/06/26 02:04:16;;;;;;;;;;;20.00;1.00;;;;;;6248474;23;19916;-91
2022/06/26 02:06:43;;;;;;;;;;;20.00;1.00;;;;;;6248529;23;19915;-91
2022/06/26 02:13:36;;;;;;;;;;;20.10;1.00;;;;;;6249585;23;19916;-91
2022/06/26 02:14:42;;;;;;;;;;;20.00;1.00;;;;;;6252448;23;20406;-91
2022/06/26 02:17:09;;;;;;;;;;;20.00;1.00;;;;;;6251379;23;19916;-91
2022/06/26 02:19:36;;;;;;;;;;;19.90;1.00;;;;;;6248144;23;19916;-92
2022/06/26 02:22:04;;;;;;;9.10;7.90;;;20.00;1.00;;;;;;6249689;23;20038;-91
2022/06/26 02:24:31;;;;;;;9.48;7.35;;;19.90;1.00;;;;;;6249774;23;20252;-91
2022/06/26 02:27:00;;;;;;;8.95;8.05;;;19.90;1.00;;;;;;6250110;23;20191;-90
2022/06/26 02:29:27;;;;;;;12.32;8.30;;;19.90;1.00;;;;;;6252483;23;20172;-91
2022/06/26 02:31:54;;;;;;;9.45;8.32;;;19.90;1.00;;;;;;6253119;23;20496;-91
2022/06/26 02:34:21;;;;;;;10.00;8.20;;;19.90;1.00;;;;;;6254480;23;20164;-90
2022/06/26 02:36:48;;;;;;;8.80;7.85;;;19.90;1.00;;;;;;6250824;23;20642;-90
2022/06/26 02:39:15;;;;;;;9.10;7.90;;;19.90;1.00;;;;;;6246202;23;20184;-90
2022/06/26 02:41:43;;;;;;;9.70;8.57;;;19.90;1.00;;;;;;6246324;23;20169;-91
2022/06/26 02:44:11;;;;;;;9.27;8.20;;;19.90;1.00;;;;;;6245672;23;20188;-90
2022/06/26 02:46:38;;;;;;;8.80;8.00;;;19.80;1.00;;;;;;6245882;23;20164;-91
2022/06/26 02:49:05;;;;;;;8.68;7.68;;;19.80;1.00;;;;;;6247396;23;20164;-91
2022/06/26 02:51:33;;;;;;;10.05;7.68;;;19.90;1.00;;;;;;6252422;22;20188;-90
2022/06/26 02:54:00;;;;;;;8.35;7.55;;;19.90;1.00;;;;;;6251813;23;20164;-90
2022/06/26 02:56:27;;;;;;;10.55;7.72;;;19.90;1.00;;;;;;6249964;23;20192;-91
2022/06/26 02:58:54;;;;;;;8.98;8.02;;;19.90;1.00;;;;;;6250100;23;20242;-91
2022/06/26 03:01:23;;;;;;;8.40;7.57;;;19.90;1.00;;;;;;6248045;23;20160;-91
2022/06/26 03:03:50;;;;;;;11.68;7.95;;;19.90;1.00;;;;;;6248852;23;20172;-91
2022/06/26 03:06:17;;;;;;;9.45;7.90;;;19.90;1.00;;;;;;6246545;23;20180;-91
2022/06/26 03:08:44;;;;;;;11.30;8.13;;;19.90;1.00;;;;;;6247027;23;20171;-92
2022/06/26 03:11:11;;;;;;;11.68;8.00;;;19.90;1.00;;;;;;6246581;23;20239;-91
2022/06/26 03:13:38;;;;;;;;;;;19.90;1.00;;;;;;6246534;23;20164;-91
2022/06/26 03:16:05;;;;;;;;;;;20.00;1.00;;;;;;6246374;23;19986;-91
2022/06/26 03:18:33;;;;;;;;;;;20.00;1.00;;;;;;6246340;23;19916;-91
2022/06/26 03:21:00;;;;;;;;;;;20.10;1.00;;;;;;6246967;23;20389;-90
2022/06/26 03:26:08;;;;;;;;;;;20.20;1.00;;;;;;6250081;23;19915;-90
2022/06/26 03:28:35;;;;;;;;;;;20.20;99.90;;;;;;6248966;23;19991;-91
2022/06/26 03:31:01;;;;;;;;;;;20.20;99.90;;;;;;6249719;23;19915;-91
2022/06/26 03:33:28;;;;;;;;;;;20.30;99.90;;;;;;6250186;23;19923;-91
2022/06/26 03:35:58;;;;;;;;;;;20.40;99.90;;;;;;6251958;23;19915;-91
2022/06/26 03:38:25;;;;;;;;;;;20.50;1.00;;;;;;6250408;23;19919;-90
2022/06/26 03:40:52;;;;;;;;;;;20.60;1.00;;;;;;6250829;23;19916;-90
2022/06/26 03:43:19;;;;;;;9.68;8.73;;;20.60;1.00;;;;;;6249545;23;20400;-91
2022/06/26 03:45:47;;;;;;;10.82;7.97;;;20.70;1.00;;;;;;6251904;23;20657;-91
2022/06/26 03:48:14;;;;;;;8.77;7.88;;;21.20;99.90;;;;;;6248139;23;20175;-90
2022/06/26 03:50:41;;;;;;;9.60;7.80;;;22.10;1.00;;;;;;6254415;22;20198;-91
2022/06/26 03:53:10;;;;;;;8.65;7.13;;;23.00;1.00;;;;;;6250973;23;20164;-91
2022/06/26 03:55:37;;;;;;;10.88;7.18;;;24.00;1.00;;;;;;6249746;23;20169;-91
2022/06/26 03:58:05;;;;;;;7.20;6.50;;;24.90;1.00;;;;;;6247878;23;20168;-92
2022/06/26 04:00:32;;;;;;;7.25;6.63;;;25.80;99.90;;;;;;6249734;23;20180;-92
2022/06/26 04:03:03;;;;;;;7.05;6.35;;;26.60;99.90;;;;;;6252965;23;20251;-92
2022/06/26 04:05:31;;;;;;;7.15;6.55;;;27.50;99.90;;;;;;6250885;23;20164;-91
2022/06/26 04:07:58;;;;;;;6.82;6.22;;;28.30;62.80;;;;;;6251959;23;20203;-92
2022/06/26 04:10:28;;;;;;;6.70;6.03;;;29.10;99.90;;;;;;6252930;23;20246;-91
2022/06/26 04:12:59;;;;;;;6.70;6.10;;;29.70;99.90;;;;;;6251683;23;20557;-91
2022/06/26 04:15:27;;;;;;;7.90;6.22;;;30.20;1.00;;;;;;6251188;23;20222;-92
2022/06/26 04:17:54;;;;;;;;;;;30.70;1.00;;;;;;6253718;23;20552;-91
2022/06/26 04:20:22;;;;;;;13.95;5.80;;;31.00;1.00;;;;;;6249735;23;20356;-91
2022/06/26 04:22:56;;;;;;;6.63;5.80;;;31.40;1.00;;;;;;6249737;23;20152;-91
2022/06/26 04:25:24;;;;;;;6.40;5.72;;;32.20;1.00;;;;;;6250724;23;20515;-91
2022/06/26 04:27:54;;;;;;;8.35;5.65;;;32.80;1.00;;;;;;6246563;23;20148;-91
2022/06/26 04:30:22;;;;;;;8.98;5.95;;;33.40;1.00;;;;;;6251657;23;20164;-90
2022/06/26 04:32:49;;;;;;;;;;;33.80;1.00;;;;;;6250642;23;20498;-90
2022/06/26 04:35:17;;;;;;;7.15;5.28;;;34.30;15.70;;;;;;6251876;23;20620;-91
2022/06/26 04:37:46;;;;;;;5.70;5.18;;;34.60;41.70;;;;;;6249382;23;20164;-91
2022/06/26 04:40:15;;;;;;;5.80;5.22;;;34.80;38.00;;;;;;6248907;23;20190;-91
2022/06/26 04:42:44;;;;;;;7.68;5.40;;;35.00;59.50;;;;;;6252632;23;20551;-91
2022/06/26 04:45:13;;;;;;;11.05;5.20;;;35.20;55.40;;;;;;6255595;23;20175;-92
2022/06/26 04:47:41;;;;;;;5.72;5.22;;;35.40;41.10;;;;;;6254072;23;20561;-92
2022/06/26 04:50:09;;;;;;;5.88;5.28;;;35.60;47.70;;;;;;6254890;22;20196;-91
2022/06/26 04:52:43;;;;;;;8.05;5.18;;;36.00;40.30;;;;;;6253151;23;20670;-91
2022/06/26 04:58:54;;;;;;;6.40;5.20;;;36.40;33.10;;;;;;6254465;23;20610;-93
2022/06/26 05:01:24;;;;;;;5.80;5.28;;;36.40;31.60;;;;;;6253799;23;20224;-93
2022/06/26 05:03:52;;;;;;;6.78;5.43;;;36.50;33.30;;;;;;6253048;23;20171;-93
2022/06/26 05:09:44;;;;;;;7.50;5.35;;;36.50;27.10;;;;;;6182874;23;20614;-92
2022/06/26 05:12:12;;;;;;;7.07;5.10;;;36.70;30.80;;;;;;6250784;23;20160;-93
2022/06/26 05:14:40;;;;;;;6.63;5.05;;;37.00;25.90;;;;;;6250903;23;20247;-94
2022/06/26 05:17:14;;;;;;;7.30;4.88;;;37.50;19.90;;;;;;6250706;23;20546;-93
2022/06/26 05:19:42;;;;;;;;;;;38.00;16.40;;;;;;6250219;23;20045;-93
2022/06/26 05:26:07;;;;;;;8.02;4.57;;;39.30;12.00;;;;;;6169511;23;20519;-96
2022/06/26 05:32:18;;;;;;;6.38;4.72;;;39.90;4.60;;;;;;6104998;23;20178;-92
2022/06/26 05:34:45;;;;;;;5.07;4.68;;;40.00;1.00;;;;;;6123162;23;20166;-92
2022/06/26 05:37:12;;;;;;;5.25;4.45;;;40.10;1.00;;;;;;6237389;23;20168;-91
2022/06/26 05:39:40;;;;;;;6.13;4.45;;;40.40;1.00;;;;;;6246314;23;20184;-91
2022/06/26 05:42:07;;;;;;;5.40;4.90;;;40.70;1.00;;;;;;6249509;23;20190;-90
2022/06/26 05:44:35;;;;;;;7.13;4.47;;;40.80;1.00;;;;;;6250205;23;20167;-91
2022/06/26 05:47:03;;;;;;;5.38;4.55;;;41.00;1.00;;;;;;6251241;23;20237;-91
2022/06/26 05:49:53;;;;;;;4.60;4.20;;;41.40;1.00;;;;;;6247692;23;20266;-93
2022/06/26 05:52:21;;;;;;;4.95;4.43;;;41.80;1.00;;;;;;6246984;23;20159;-90
2022/06/26 05:54:56;;;;;;;5.32;4.70;;;42.00;1.00;;;;;;6247495;23;20167;-92
2022/06/26 06:00:34;;;;;;;5.18;4.68;;;42.30;1.00;;;;;;6232161;23;20630;-93
2022/06/26 06:03:11;;;;;;;4.85;4.45;;;42.60;1.00;;;;;;6247634;23;20235;-91
2022/06/26 06:05:50;;;;;;;;;;;42.90;1.00;;;;;;6249810;23;20242;-93
2022/06/26 06:08:29;;;;;;;4.63;4.20;;;43.20;1.00;;;;;;6248307;23;20122;-92
2022/06/26 06:10:57;;;;;;;5.28;4.30;;;43.60;1.00;;;;;;6248894;23;20234;-92
2022/06/26 06:13:24;;;;;;;5.72;4.38;;;44.20;1.00;;;;;;6246487;23;20200;-93
2022/06/26 06:15:51;;;;;;;6.15;4.18;;;44.70;1.00;;;;;;6246659;23;20164;-92
2022/06/26 06:18:19;;;;;;;6.63;4.20;;;45.10;1.00;;;;;;6246775;23;20167;-92
2022/06/26 06:20:50;;;;;;;4.53;4.15;;;45.70;1.00;;;;;;6247013;23;20478;-93
2022/06/26 06:23:17;;;;;;;4.65;4.10;;;46.10;1.00;;;;;;6246602;23;20247;-93
2022/06/26 06:25:45;;;;;;;4.93;4.40;;;46.40;1.00;;;;;;6246216;23;20198;-93
2022/06/26 06:28:12;;;;;;;4.55;4.03;;;46.60;1.00;;;;;;6246232;23;20168;-92
2022/06/26 06:30:39;;;;;;;6.25;3.92;;;46.80;1.00;;;;;;6246948;23;20242;-92
2022/06/26 06:33:07;;;;;;;4.65;4.25;;;47.00;1.00;;;;;;6245837;23;20164;-92
2022/06/26 06:35:34;;;;;;;4.80;3.80;;;47.30;1.00;;;;;;6246252;23;20168;-92
2022/06/26 06:38:03;;;;;;;4.95;3.85;;;47.40;1.00;;;;;;6246193;23;20258;-92
2022/06/26 06:40:31;;;;;;;4.30;3.90;;;47.40;1.00;;;;;;6246272;23;20595;-92
2022/06/26 06:42:58;;;;;;;4.70;3.78;;;47.30;1.00;;;;;;6245967;23;20186;-91
2022/06/26 06:45:25;;;;;;;7.18;3.72;;;47.50;1.00;;;;;;6246010;23;20182;-91
2022/06/26 06:47:53;;;;;;;5.18;3.60;;;47.60;1.00;;;;;;6245870;23;20183;-93
2022/06/26 06:50:20;;;;;;;5.22;3.70;;;47.60;1.00;;;;;;6245619;22;20249;-93
2022/06/26 06:52:54;;;;;;;3.85;3.50;;;47.80;1.00;;;;;;6244859;23;20198;-93
2022/06/26 06:55:23;;;;;;;3.88;3.50;;;48.30;1.00;;;;;;6248283;23;20187;-94
2022/06/26 06:57:51;;;;;;;5.47;3.70;;;48.70;1.00;;;;;;6261992;22;20870;-94
2022/06/26 07:00:44;;;;;;;4.87;3.63;;;48.90;1.00;;;;;;6255319;23;20256;-95
2022/06/26 07:10:14;;;;;;;7.00;3.80;;;48.90;1.00;;;;;;6201859;22;20260;-93
2022/06/26 07:13:38;;;;;;;;;;;;;;;;;;;;;
2022/06/26 07:16:08;;;;;;;4.35;3.55;;;48.20;1.00;;;;;;6222221;23;20369;-93
2022/06/26 07:21:53;;;;;;;4.60;3.60;;;48.10;1.00;;;;;;6222223;22;20199;-95
2022/06/26 07:24:33;;;;;;;;;;;;;;;;;;;;;
2022/06/26 07:45:15;;;;;;;3.83;3.40;;;48.20;1.00;;;;;;6185990;23;20583;-93
2022/06/26 07:47:42;;;;;;;4.05;3.50;;;47.90;1.00;;;;;;6253169;22;20217;-91
2022/06/26 07:56:35;;;;;;;6.18;3.33;;;48.40;1.00;;;;;;6208373;22;20206;-91
2022/06/26 07:59:04;;;;;;;4.75;3.70;;;48.20;1.00;;;;;;6249284;23;20162;-92
2022/06/26 08:10:49;;;;;;;5.35;3.47;;;46.90;1.00;;;;;;6235274;22;20279;-94
2022/06/26 08:13:17;;;;;;;3.78;3.45;;;46.60;1.00;;;;;;6248770;23;20591;-93
2022/06/26 08:15:45;;;;;;;3.63;3.33;;;46.60;1.00;;;;;;6249500;22;20159;-90
2022/06/26 08:18:13;;;;;;;3.78;3.35;;;46.60;1.00;;;;;;6247876;23;20590;-90
2022/06/26 08:20:40;;;;;;;3.95;3.55;;;46.30;1.00;;;;;;6244751;23;20175;-91
2022/06/26 08:23:08;;;;;;;3.90;3.60;;;46.20;1.00;;;;;;6249694;23;20482;-91
2022/06/26 08:25:35;;;;;;;7.65;3.45;;;46.30;1.00;;;;;;6247923;23;20168;-94
2022/06/26 08:28:03;;;;;;;3.53;3.20;;;46.60;1.00;;;;;;6243915;23;20155;-90
2022/06/26 08:30:30;;;;;;;3.60;3.30;;;46.90;1.00;;;;;;6244784;23;20194;-91
2022/06/26 08:32:59;;;;;;;4.45;3.42;;;46.70;1.00;;;;;;6245118;23;20167;-92
2022/06/26 08:35:56;;;;;;;3.88;3.40;;;46.40;1.00;;;;;;6253136;23;20164;-95
2022/06/26 08:38:33;;;;;;;4.50;3.20;;;45.70;1.00;;;;;;6238648;23;20159;-93
2022/06/26 08:41:22;;;;;;;;;;;;;;;;;;;;;
2022/06/26 08:44:19;;;;;;;5.50;3.20;;;45.20;1.00;;;;;;6249254;23;20160;-92
2022/06/26 08:47:23;;;;;;;4.80;3.58;;;44.50;1.00;;;;;;6248792;23;20623;-93
2022/06/26 08:50:23;;;;;;;3.75;3.38;;;43.90;1.00;;;;;;6249719;23;21024;-93
2022/06/26 08:53:11;;;;;;;3.72;3.30;;;43.40;1.00;;;;;;6242639;23;20217;-94
2022/06/26 08:55:56;;;;;;;4.95;3.28;;;43.20;1.00;;;;;;6250106;23;20160;-94
2022/06/26 09:01:50;;;;;;;3.45;3.15;;;42.90;1.00;;;;;;6253351;23;20220;-96
2022/06/26 09:04:19;;;;;;;3.17;2.83;;;43.00;1.00;;;;;;6271922;23;20183;-95
2022/06/26 09:07:10;;;;;;;3.53;3.03;;;43.00;1.00;;;;;;6272383;23;20154;-93
2022/06/26 09:09:45;;;;;;;5.13;3.05;;;43.00;1.00;;;;;;6272487;23;20171;-96
2022/06/26 09:12:22;;;;;;;3.00;2.75;;;43.00;1.00;;;;;;6271380;22;20180;-96
2022/06/26 09:15:17;;;;;;;3.58;2.72;;;42.90;1.00;;;;;;6271972;22;20156;-94
2022/06/26 09:18:05;;;;;;;3.95;2.80;;;42.50;1.00;;;;;;6272180;23;20164;-96
2022/06/26 09:20:57;;;;;;;4.30;3.10;;;42.40;1.00;;;;;;6271965;23;20180;-94
2022/06/26 09:23:53;;;;;;;3.22;2.83;;;42.40;1.00;;;;;;6271695;22;20145;-94
2022/06/26 09:26:31;;;;;;;4.20;3.28;;;42.10;1.00;;;;;;6271094;22;20162;-93
2022/06/26 09:29:08;;;;;;;3.63;2.83;;;42.00;1.00;;;;;;6253279;23;20234;-91
2022/06/26 09:31:38;;;;;;;4.25;2.58;;;42.10;1.00;;;;;;6246922;23;20180;-91
2022/06/26 09:34:05;;;;;;;6.35;2.88;;;41.80;1.00;;;;;;6245421;23;20161;-89
2022/06/26 09:36:57;;;;;;;3.28;2.67;;;41.40;1.00;;;;;;6245837;23;20160;-94
2022/06/26 09:39:53;;;;;;;2.88;2.53;;;41.00;1.00;;;;;;6248295;23;20251;-94
2022/06/26 09:42:43;;;;;;;3.58;3.20;;;40.20;1.00;;;;;;6249683;23;20148;-94
2022/06/26 09:48:44;;;;;;;3.35;3.05;;;39.20;1.00;;;;;;6113355;23;20170;-90
2022/06/26 09:51:13;;;;;;;4.53;3.35;;;38.80;1.00;;;;;;6247612;23;20218;-89
2022/06/26 09:53:41;;;;;;;6.63;3.47;;;38.60;1.00;;;;;;6246485;23;20621;-89
2022/06/26 09:57:12;;;;;;;8.30;7.05;;;38.30;1.00;;;;;;6257750;23;20163;-94
2022/06/26 10:06:53;;;;;;;6.25;3.80;;;38.00;1.00;;;;;;6218385;23;20140;-94
2022/06/26 10:09:21;;;;;;;6.18;3.72;;;37.60;1.00;;;;;;6215603;23;20167;-90
2022/06/26 10:11:48;;;;;;;7.10;4.30;;;37.40;1.00;;;;;;6214588;23;20242;-89
2022/06/26 10:14:19;;;;;;;6.28;3.83;;;37.50;1.00;;;;;;6215281;23;20164;-91
2022/06/26 10:17:12;;;;;;;4.33;3.93;;;37.40;1.00;;;;;;6197287;23;20187;-90
2022/06/26 10:19:45;;;;;;;4.70;4.25;;;36.80;1.00;;;;;;6200242;23;20152;-94
2022/06/26 10:22:20;;;;;;;7.80;4.07;;;36.80;1.00;;;;;;6215651;23;20532;-91
2022/06/26 10:24:52;;;;;;;5.05;3.38;;;36.70;1.00;;;;;;6215661;23;20171;-91
2022/06/26 10:27:25;;;;;;;14.10;13.02;;;36.70;1.00;;;;;;6215452;23;20222;-91
2022/06/26 10:30:05;;;;;;;5.00;3.38;;;37.00;1.00;;;;;;6214728;23;20171;-90
2022/06/26 10:32:34;;;;;;;3.50;3.10;;;37.10;1.00;;;;;;6215125;23;20185;-91
2022/06/26 10:35:03;;;;;;;3.78;3.47;;;36.90;1.00;;;;;;6215280;23;20172;-91
2022/06/26 10:37:41;;;;;;;3.85;3.40;;;36.40;1.00;;;;;;6217897;23;20169;-91
2022/06/26 10:42:52;;;;;;;6.80;3.45;;;36.50;1.00;;;;;;6215082;23;20192;-91
2022/06/26 10:43:04;;;;;;;11.25;10.25;;;36.60;1.00;;;;;;6215945;23;20153;-91
2022/06/26 10:45:33;;;;;;;7.32;5.93;;;36.60;1.00;;;;;;6217241;23;20165;-90
2022/06/26 10:48:05;;;;;;;4.80;3.78;;;36.70;1.00;;;;;;6214866;23;20252;-91
2022/06/26 10:50:45;;;;;;;3.65;3.05;;;37.00;1.00;;;;;;6217722;23;20189;-94
2022/06/26 10:53:19;;;;;;;4.25;3.28;;;37.10;1.00;;;;;;6215321;23;20160;-93
2022/06/26 10:56:03;;;;;;;6.57;5.93;;;36.80;1.00;;;;;;6216551;23;20183;-93
2022/06/26 10:58:31;;;;;;;10.85;7.20;;;36.80;1.00;;;;;;6214819;23;20149;-91
2022/06/26 11:01:22;;;;;;;7.20;6.10;;;36.70;1.00;;;;;;6215123;23;20170;-91
2022/06/26 11:04:13;;;;;;;5.05;3.95;;;36.70;1.00;;;;;;6212774;23;20156;-94
2022/06/26 11:06:57;;;;;;;4.50;3.25;;;36.60;1.00;;;;;;6224204;23;20171;-92
2022/06/26 11:17:59;;;;;;;3.42;3.00;;;36.30;1.00;;;;;;6235538;22;20565;-90
2022/06/26 11:27:30;;;;;;;4.22;3.10;;;35.40;1.00;;;;;;6251005;23;20233;-92
2022/06/26 11:29:58;;;;;;;4.07;3.30;;;35.20;1.00;;;;;;6249022;23;20188;-91
2022/06/26 11:32:26;;;;;;;5.03;3.10;;;35.00;1.00;;;;;;6245263;23;20208;-90
2022/06/26 11:41:14;;;;;;;2.90;2.70;;;35.10;1.00;;;;;;6151687;23;20667;-90
2022/06/26 11:44:38;;;;;;;19.15;16.05;;;35.00;1.00;;;;;;6233536;23;20152;-94
2022/06/26 11:47:06;;;;;;;3.60;3.30;;;35.00;1.00;;;;;;6258676;23;20188;-90
2022/06/26 11:53:50;;;;;;;;;;;;;;;;;;;;;
2022/06/26 11:56:59;;;;;;;4.65;3.28;;;35.40;1.00;;;;;;6069029;23;20151;-96
2022/06/26 12:12:52;;;;;;;3.50;3.17;;;35.80;1.00;;;;;;6225376;22;20211;-92
2022/06/26 12:15:51;;;;;;;4.97;3.53;;;35.80;1.00;;;;;;6262453;22;20156;-95
2022/06/26 12:18:22;;;;;;;6.82;3.60;;;35.70;1.00;;;;;;6235258;23;20168;-96
2022/06/26 12:21:22;;;;;;;4.25;3.38;;;35.90;1.00;;;;;;6273018;22;20152;-95
2022/06/26 12:24:24;;;;;;;3.70;3.40;;;35.80;1.00;;;;;;6303172;22;20143;-94
2022/06/26 12:27:23;;;;;;;3.67;3.22;;;35.80;1.00;;;;;;6303508;22;20147;-96
2022/06/26 12:29:57;;;;;;;3.50;3.20;;;35.80;1.00;;;;;;6303420;22;20234;-94
2022/06/26 12:32:25;;;;;;;3.83;3.40;;;35.70;1.00;;;;;;6282448;22;20209;-93
2022/06/26 12:34:52;;;;;;;4.80;3.22;;;35.80;1.00;;;;;;6276887;22;20170;-92
2022/06/26 12:37:42;;;;;;;3.70;3.40;;;36.00;1.00;;;;;;6285197;22;20182;-95
2022/06/26 12:40:26;;;;;;;4.32;3.60;;;36.10;1.00;;;;;;6303373;22;20173;-95
2022/06/26 12:43:10;;;;;;;3.70;3.22;;;35.90;1.00;;;;;;6301770;22;20189;-93
2022/06/26 12:46:07;;;;;;;3.47;3.17;;;35.90;1.00;;;;;;6303447;22;20167;-93
2022/06/26 12:52:51;;;;;;;3.72;3.35;;;35.80;1.00;;;;;;6303394;22;20181;-95
2022/06/26 12:55:20;;;;;;;5.65;3.30;;;35.70;1.00;;;;;;6302659;22;20160;-95
2022/06/26 13:04:37;;;;;;;3.45;3.20;;;35.60;1.00;;;;;;6212495;22;20171;-89
2022/06/26 13:07:05;;;;;;;4.47;3.28;;;35.50;1.00;;;;;;6277172;22;20444;-89
2022/06/26 13:12:50;;;;;;;4.07;3.50;;;35.50;1.00;;;;;;6287253;22;20203;-91
2022/06/26 13:18:50;;;;;;;3.47;3.17;;;35.60;1.00;;;;;;6226095;22;20163;-87
2022/06/26 13:21:32;;;;;;;3.60;3.30;;;35.60;1.00;;;;;;6274252;22;20629;-89
2022/06/26 13:27:50;;;;;;;3.25;2.95;;;35.60;1.00;;;;;;6279883;22;20569;-93
2022/06/26 13:30:17;;;;;;;3.20;2.90;;;35.60;1.00;;;;;;6290823;22;20167;-88
2022/06/26 13:32:52;;;;;;;3.97;3.40;;;35.60;1.00;;;;;;6276316;22;20259;-91
2022/06/26 13:35:31;;;;;;;3.17;2.97;;;35.60;1.00;;;;;;6274720;22;20162;-91
2022/06/26 13:38:21;;;;;;;3.78;3.20;;;35.40;1.00;;;;;;6276089;22;20213;-91
2022/06/26 13:40:49;;;;;;;4.35;2.92;;;35.30;1.00;;;;;;6276466;22;20245;-89
2022/06/26 13:43:39;;;;;;;4.38;3.13;;;35.40;1.00;;;;;;6274381;22;20166;-90
2022/06/26 13:46:06;;;;;;;3.78;3.47;;;35.40;1.00;;;;;;6273407;22;20471;-88
2022/06/26 13:48:36;;;;;;;4.05;3.40;;;35.30;1.00;;;;;;6275815;22;20159;-92
2022/06/26 13:51:08;;;;;;;3.10;2.80;;;35.30;1.00;;;;;;6275462;22;20181;-90
2022/06/26 13:53:40;;;;;;;4.85;3.78;;;35.20;1.00;;;;;;6274069;22;20156;-89
2022/06/26 13:56:07;;;;;;;3.88;3.47;;;35.10;1.00;;;;;;6274566;22;20189;-86
2022/06/26 13:58:34;;;;;;;5.90;4.05;;;35.00;1.00;;;;;;6263834;22;20159;-89
2022/06/26 14:01:03;;;;;;;3.80;3.38;;;35.00;1.00;;;;;;6276294;22;20171;-89
2022/06/26 14:03:43;;;;;;;3.70;3.40;;;35.00;1.00;;;;;;6277574;22;20160;-88
2022/06/26 14:06:12;;;;;;;3.83;3.42;;;35.10;1.00;;;;;;6275955;22;20209;-88
2022/06/26 14:08:40;;;;;;;4.78;3.40;;;35.00;1.00;;;;;;6275512;22;20163;-88
2022/06/26 14:11:07;;;;;;;5.30;3.30;;;35.00;1.00;;;;;;6275390;22;20172;-87
2022/06/26 14:13:35;;;;;;;6.82;3.55;;;35.00;1.00;;;;;;6263541;22;20191;-87
2022/06/26 14:28:18;;;;;;;4.07;3.60;;;34.90;1.00;;;;;;6276264;22;20247;-87
2022/06/26 14:30:57;;;;;;;4.55;3.45;;;34.90;1.00;;;;;;6277186;22;20159;-87
2022/06/26 14:33:25;;;;;;;4.72;3.45;;;34.90;1.00;;;;;;6275402;22;20488;-88
2022/06/26 14:35:54;;;;;;;4.45;3.80;;;35.00;1.00;;;;;;6276041;22;20662;-87
2022/06/26 14:38:25;;;;;;;3.75;3.42;;;35.00;1.00;;;;;;6275744;22;20170;-88
2022/06/26 14:40:54;;;;;;;3.80;3.42;;;34.90;1.00;;;;;;6275141;22;20178;-87
2022/06/26 14:46:37;;;;;;;4.07;3.67;;;34.70;1.00;;;;;;6235618;22;20156;-90
2022/06/26 14:49:41;;;;;;;5.03;4.10;;;34.70;1.00;;;;;;6275306;22;20179;-91
2022/06/26 14:52:09;;;;;;;4.00;3.60;;;34.70;1.00;;;;;;6240662;22;20589;-90
2022/06/26 14:54:36;;;;;;;4.05;3.65;;;34.50;1.00;;;;;;6275345;22;20594;-88
2022/06/26 14:57:11;;;;;;;4.40;4.00;;;34.50;1.00;;;;;;6288519;22;20171;-93
2022/06/26 15:00:21;;;;;;;6.32;4.05;;;34.50;1.00;;;;;;6292508;22;20155;-87
2022/06/26 15:02:57;;;;;;;4.10;3.80;;;34.40;1.00;;;;;;6296607;22;20159;-88
2022/06/26 15:12:20;;;;;;;5.45;3.92;;;34.30;1.00;;;;;;6290151;22;20182;-90
2022/06/26 15:16:04;;;;;;;4.80;4.30;;;34.20;1.00;;;;;;6288915;22;20351;-93
2022/06/26 15:22:23;;;;;;;;;;;;;;;;;;;;;
2022/06/26 15:25:16;;;;;;;4.57;3.92;;;33.90;1.00;;;;;;6137150;23;20381;-90
2022/06/26 15:42:17;;;;;;;4.68;3.88;;;33.40;1.00;;;;;;6059995;23;20237;-90
2022/06/26 15:45:45;;;;;;;;;;;;;;;;;;;;;
2022/06/26 15:52:45;;;;;;;5.20;3.92;;;33.50;1.00;;;;;;5999067;24;20234;-95
2022/06/26 15:58:43;;;;;;;4.78;3.88;;;33.40;1.00;;;;;;5975137;24;20161;-90
2022/06/26 16:05:32;;;;;;;6.28;4.10;;;33.20;1.00;;;;;;5905352;24;20170;-92
2022/06/26 16:08:37;;;;;;;5.78;3.97;;;33.20;1.00;;;;;;5997923;23;20190;-90
2022/06/26 16:18:12;;;;;;;7.70;4.65;;;33.20;1.00;;;;;;6211521;22;20218;-91
2022/06/26 16:20:54;;;;;;;5.90;3.92;;;33.20;1.00;;;;;;6191382;23;20596;-91
2022/06/26 16:27:17;;;;;;;4.45;3.80;;;33.20;1.00;;;;;;6257656;23;20151;-91
2022/06/26 16:37:08;;;;;;;;;;;;;;;;;;;;;
2022/06/26 16:40:29;;;;;;;6.50;4.40;;;32.80;1.00;;;;;;6158341;23;20170;-90
2022/06/26 16:49:07;;;;;;;;;;;;;;;;;;;;;
2022/06/26 16:52:38;;;;;;;8.82;6.05;;;32.40;1.00;;;;;;6256448;22;20171;-93
2022/06/26 16:56:00;;;;;;;9.50;6.72;;;32.20;1.00;;;;;;6115001;23;20197;-91
2022/06/26 16:59:24;;;;;;;7.75;5.55;;;31.90;1.00;;;;;;6114847;23;20186;-90
2022/06/26 17:02:34;;;;;;;7.75;4.75;;;31.80;1.00;;;;;;6119002;23;20181;-91
2022/06/26 17:18:43;;;;;;;12.20;9.82;;;30.90;1.00;;;;;;6249146;22;20203;-90
2022/06/26 17:33:22;;;;;;;13.13;10.73;;;30.30;1.00;;;;;;6218537;22;20203;-91
2022/06/26 17:43:30;;;;;;;7.93;5.50;;;30.00;1.00;;;;;;6252657;23;20144;-93
2022/06/26 17:47:44;;;;;;;9.20;4.88;;;29.80;1.00;;;;;;6250074;23;20165;-93
2022/06/26 17:50:32;;;;;;;;;;;;;;;;;;;;;
2022/06/26 17:56:35;;;;;;;10.70;4.85;;;29.50;1.00;;;;;;6102308;23;20208;-90
2022/06/26 17:59:45;;;;;;;12.70;5.15;;;29.40;1.00;;;;;;6095907;23;20179;-91
2022/06/26 18:05:27;;;;;;;5.35;4.95;;;29.20;1.00;;;;;;6120407;23;20176;-89
2022/06/26 18:07:54;;;;;;;6.07;5.47;;;29.10;1.00;;;;;;6244599;23;20235;-87
2022/06/26 18:10:23;;;;;;;5.55;5.05;;;29.00;1.00;;;;;;6245024;23;20200;-88
2022/06/26 18:12:53;;;;;;;6.63;5.40;;;29.00;1.00;;;;;;6251194;23;20266;-88
2022/06/26 18:15:28;;;;;;;5.65;4.88;;;28.90;1.00;;;;;;6251344;23;20164;-88
2022/06/26 18:18:12;;;;;;;8.38;5.18;;;28.80;1.00;;;;;;6255627;22;20148;-92
2022/06/26 18:20:40;;;;;;;7.63;5.00;;;28.70;1.00;;;;;;6233859;23;20152;-88